sensor_id;sensor_type;location;lat;lon;timestamp;temperature;humidity
22065;DHT22;11197;53.110;8.468;2023-05-10T00:01:24;16.50;99.90
22065;DHT22;11197;53.110;8.468;2023-05-10T00:03:49;16.50;99.90
22065;DHT22;11197;53.110;8.468;2023-05-10T00:06:15;16.50;99.90
22065;DHT22;11197;53.110;8.468;2023-05-10T00:08:45;16.50;99.90
22065;DHT22;11197;53.110;8.468;2023-05-10T00:11:10;16.40;99.90
22065;DHT22;11197;53.110;8.468;2023-05-10T00:13:36;16.50;99.90
22065;DHT22;11197;53.110;8.468;2023-05-10T00:16:02;16.40;99.90
22065;DHT22;11197;53.110;8.468;2023-05-10T00:18:28;16.40;99.90
22065;DHT22;11197;53.110;8.468;2023-05-10T00:20:54;16.40;99.90
22065;DHT22;11197;53.110;8.468;2023-05-10T00:23:20;16.40;99.90
22065;DHT22;11197;53.110;8.468;2023-05-10T00:25:45;16.40;99.90
22065;DHT22;11197;53.110;8.468;2023-05-10T00:28:12;16.40;99.90
22065;DHT22;11197;53.110;8.468;2023-05-10T00:30:38;16.40;99.90
22065;DHT22;11197;53.110;8.468;2023-05-10T00:33:04;16.40;99.90
22065;DHT22;11197;53.110;8.468;2023-05-10T00:35:29;16.40;99.90
22065;DHT22;11197;53.110;8.468;2023-05-10T00:37:55;16.30;99.90
22065;DHT22;11197;53.110;8.468;2023-05-10T00:40:21;16.30;99.90
22065;DHT22;11197;53.110;8.468;2023-05-10T00:42:52;16.30;99.90
22065;DHT22;11197;53.110;8.468;2023-05-10T00:45:18;16.30;99.90
22065;DHT22;11197;53.110;8.468;2023-05-10T00:47:44;16.30;99.90
22065;DHT22;11197;53.110;8.468;2023-05-10T00:50:10;16.30;99.90
22065;DHT22;11197;53.110;8.468;2023-05-10T00:52:36;16.30;99.90
22065;DHT22;11197;53.110;8.468;2023-05-10T00:55:02;16.30;99.90
22065;DHT22;11197;53.110;8.468;2023-05-10T00:57:31;16.30;99.90
22065;DHT22;11197;53.110;8.468;2023-05-10T00:59:57;16.20;99.90
22065;DHT22;11197;53.110;8.468;2023-05-10T01:02:24;16.20;99.90
22065;DHT22;11197;53.110;8.468;2023-05-10T01:04:51;16.20;99.90
22065;DHT22;11197;53.110;8.468;2023-05-10T01:07:17;16.20;99.90
22065;DHT22;11197;53.110;8.468;2023-05-10T01:09:43;16.20;99.90
22065;DHT22;11197;53.110;8.468;2023-05-10T01:12:10;16.20;99.90
22065;DHT22;11197;53.110;8.468;2023-05-10T01:14:36;16.20;99.90
22065;DHT22;11197;53.110;8.468;2023-05-10T01:17:04;16.20;99.90
22065;DHT22;11197;53.110;8.468;2023-05-10T01:19:31;16.20;99.90
22065;DHT22;11197;53.110;8.468;2023-05-10T01:34:16;16.10;99.90
22065;DHT22;11197;53.110;8.468;2023-05-10T01:36:49;16.10;99.90
22065;DHT22;11197;53.110;8.468;2023-05-10T01:42:12;16.10;99.90
22065;DHT22;11197;53.110;8.468;2023-05-10T01:44:40;16.10;99.90
22065;DHT22;11197;53.110;8.468;2023-05-10T01:47:15;16.10;99.90
22065;DHT22;11197;53.110;8.468;2023-05-10T01:49:49;16.00;99.90
22065;DHT22;11197;53.110;8.468;2023-05-10T01:52:19;16.00;99.90
22065;DHT22;11197;53.110;8.468;2023-05-10T01:54:50;16.00;99.90
22065;DHT22;11197;53.110;8.468;2023-05-10T01:57:20;16.00;99.90
22065;DHT22;11197;53.110;8.468;2023-05-10T01:59:49;16.00;99.90
22065;DHT22;11197;53.110;8.468;2023-05-10T02:02:16;16.00;99.90
22065;DHT22;11197;53.110;8.468;2023-05-10T02:04:45;15.90;99.90
22065;DHT22;11197;53.110;8.468;2023-05-10T02:07:12;15.90;99.90
22065;DHT22;11197;53.110;8.468;2023-05-10T02:09:40;15.90;99.90
22065;DHT22;11197;53.110;8.468;2023-05-10T02:12:09;15.90;99.90
22065;DHT22;11197;53.110;8.468;2023-05-10T02:14:39;15.80;99.90
22065;DHT22;11197;53.110;8.468;2023-05-10T02:17:06;15.80;99.90
22065;DHT22;11197;53.110;8.468;2023-05-10T02:19:34;15.70;99.90
22065;DHT22;11197;53.110;8.468;2023-05-10T02:22:00;15.70;99.90
22065;DHT22;11197;53.110;8.468;2023-05-10T02:24:28;15.70;99.90
22065;DHT22;11197;53.110;8.468;2023-05-10T02:26:54;15.60;99.90
22065;DHT22;11197;53.110;8.468;2023-05-10T02:29:25;15.60;99.90
22065;DHT22;11197;53.110;8.468;2023-05-10T02:31:53;15.60;99.90
22065;DHT22;11197;53.110;8.468;2023-05-10T02:34:23;15.60;99.90
22065;DHT22;11197;53.110;8.468;2023-05-10T02:36:51;15.50;99.90
22065;DHT22;11197;53.110;8.468;2023-05-10T02:39:22;15.50;99.90
22065;DHT22;11197;53.110;8.468;2023-05-10T02:41:50;15.50;99.90
22065;DHT22;11197;53.110;8.468;2023-05-10T02:44:18;15.40;99.90
22065;DHT22;11197;53.110;8.468;2023-05-10T02:46:46;15.40;99.90
22065;DHT22;11197;53.110;8.468;2023-05-10T02:49:12;15.40;99.90
22065;DHT22;11197;53.110;8.468;2023-05-10T02:51:42;15.40;99.90
22065;DHT22;11197;53.110;8.468;2023-05-10T02:54:12;15.30;99.90
22065;DHT22;11197;53.110;8.468;2023-05-10T02:56:47;15.30;99.90
22065;DHT22;11197;53.110;8.468;2023-05-10T02:59:16;15.20;99.90
22065;DHT22;11197;53.110;8.468;2023-05-10T03:01:41;15.10;99.90
22065;DHT22;11197;53.110;8.468;2023-05-10T03:04:07;15.00;99.90
22065;DHT22;11197;53.110;8.468;2023-05-10T03:06:33;15.10;99.90
22065;DHT22;11197;53.110;8.468;2023-05-10T03:09:01;15.00;99.90
22065;DHT22;11197;53.110;8.468;2023-05-10T03:11:38;15.00;99.90
22065;DHT22;11197;53.110;8.468;2023-05-10T03:14:28;14.90;99.90
22065;DHT22;11197;53.110;8.468;2023-05-10T03:20:01;14.80;99.90
22065;DHT22;11197;53.110;8.468;2023-05-10T03:22:37;14.80;99.90
22065;DHT22;11197;53.110;8.468;2023-05-10T03:25:10;14.70;99.90
22065;DHT22;11197;53.110;8.468;2023-05-10T03:27:40;14.70;99.90
22065;DHT22;11197;53.110;8.468;2023-05-10T03:30:11;14.60;99.90
22065;DHT22;11197;53.110;8.468;2023-05-10T03:32:38;14.60;99.90
22065;DHT22;11197;53.110;8.468;2023-05-10T03:35:08;14.50;99.90
22065;DHT22;11197;53.110;8.468;2023-05-10T03:37:34;14.50;99.90
22065;DHT22;11197;53.110;8.468;2023-05-10T03:40:01;14.50;99.90
22065;DHT22;11197;53.110;8.468;2023-05-10T03:42:30;14.50;99.90
22065;DHT22;11197;53.110;8.468;2023-05-10T03:44:56;14.40;99.90
22065;DHT22;11197;53.110;8.468;2023-05-10T03:47:23;14.40;99.90
22065;DHT22;11197;53.110;8.468;2023-05-10T03:49:49;14.30;99.90
22065;DHT22;11197;53.110;8.468;2023-05-10T03:52:15;14.30;99.90
22065;DHT22;11197;53.110;8.468;2023-05-10T03:54:40;14.30;99.90
22065;DHT22;11197;53.110;8.468;2023-05-10T03:57:07;14.30;99.90
22065;DHT22;11197;53.110;8.468;2023-05-10T03:59:32;14.30;99.90
22065;DHT22;11197;53.110;8.468;2023-05-10T04:01:58;14.30;99.90
22065;DHT22;11197;53.110;8.468;2023-05-10T04:04:24;14.30;99.90
22065;DHT22;11197;53.110;8.468;2023-05-10T04:06:50;14.20;99.90
22065;DHT22;11197;53.110;8.468;2023-05-10T04:09:16;14.20;99.90
22065;DHT22;11197;53.110;8.468;2023-05-10T04:11:43;14.20;99.90
22065;DHT22;11197;53.110;8.468;2023-05-10T04:14:09;14.20;99.90
22065;DHT22;11197;53.110;8.468;2023-05-10T04:16:35;14.20;99.90
22065;DHT22;11197;53.110;8.468;2023-05-10T04:19:01;14.20;99.90
22065;DHT22;11197;53.110;8.468;2023-05-10T04:21:28;14.20;99.90
22065;DHT22;11197;53.110;8.468;2023-05-10T04:23:57;14.20;99.90
22065;DHT22;11197;53.110;8.468;2023-05-10T04:26:23;14.10;99.90
22065;DHT22;11197;53.110;8.468;2023-05-10T04:28:50;14.10;99.90
22065;DHT22;11197;53.110;8.468;2023-05-10T04:31:16;14.00;99.90
22065;DHT22;11197;53.110;8.468;2023-05-10T04:33:42;14.00;99.90
22065;DHT22;11197;53.110;8.468;2023-05-10T04:36:09;14.00;99.90
22065;DHT22;11197;53.110;8.468;2023-05-10T04:38:35;14.00;99.90
22065;DHT22;11197;53.110;8.468;2023-05-10T04:41:05;14.00;99.90
22065;DHT22;11197;53.110;8.468;2023-05-10T04:43:31;14.00;99.90
22065;DHT22;11197;53.110;8.468;2023-05-10T04:45:57;14.00;99.90
22065;DHT22;11197;53.110;8.468;2023-05-10T04:48:23;13.90;99.90
22065;DHT22;11197;53.110;8.468;2023-05-10T04:50:49;13.90;99.90
22065;DHT22;11197;53.110;8.468;2023-05-10T04:53:19;13.90;99.90
22065;DHT22;11197;53.110;8.468;2023-05-10T04:55:45;13.90;99.90
22065;DHT22;11197;53.110;8.468;2023-05-10T04:58:12;13.90;99.90
22065;DHT22;11197;53.110;8.468;2023-05-10T05:00:38;13.90;99.90
22065;DHT22;11197;53.110;8.468;2023-05-10T05:03:04;13.90;99.90
22065;DHT22;11197;53.110;8.468;2023-05-10T05:05:30;13.90;99.90
22065;DHT22;11197;53.110;8.468;2023-05-10T05:07:56;13.90;99.90
22065;DHT22;11197;53.110;8.468;2023-05-10T05:10:22;13.90;99.90
22065;DHT22;11197;53.110;8.468;2023-05-10T05:12:48;14.00;99.90
22065;DHT22;11197;53.110;8.468;2023-05-10T05:15:14;14.00;99.90
22065;DHT22;11197;53.110;8.468;2023-05-10T05:17:42;14.00;99.90
22065;DHT22;11197;53.110;8.468;2023-05-10T05:20:09;14.00;99.90
22065;DHT22;11197;53.110;8.468;2023-05-10T05:22:38;14.00;99.90
22065;DHT22;11197;53.110;8.468;2023-05-10T05:25:05;14.00;99.90
22065;DHT22;11197;53.110;8.468;2023-05-10T05:27:31;14.00;99.90
22065;DHT22;11197;53.110;8.468;2023-05-10T05:29:57;14.00;99.90
22065;DHT22;11197;53.110;8.468;2023-05-10T05:32:24;14.10;99.90
22065;DHT22;11197;53.110;8.468;2023-05-10T05:34:50;14.10;99.90
22065;DHT22;11197;53.110;8.468;2023-05-10T05:37:18;14.10;99.90
22065;DHT22;11197;53.110;8.468;2023-05-10T05:39:44;14.10;99.90
22065;DHT22;11197;53.110;8.468;2023-05-10T05:42:12;14.10;99.90
22065;DHT22;11197;53.110;8.468;2023-05-10T05:44:38;14.10;99.90
22065;DHT22;11197;53.110;8.468;2023-05-10T05:47:06;14.20;99.90
22065;DHT22;11197;53.110;8.468;2023-05-10T05:49:32;14.20;99.90
22065;DHT22;11197;53.110;8.468;2023-05-10T05:52:04;14.20;99.90
22065;DHT22;11197;53.110;8.468;2023-05-10T05:54:30;14.20;99.90
22065;DHT22;11197;53.110;8.468;2023-05-10T05:57:00;14.20;99.90
22065;DHT22;11197;53.110;8.468;2023-05-10T05:59:26;14.30;99.90
22065;DHT22;11197;53.110;8.468;2023-05-10T06:01:52;14.20;99.90
22065;DHT22;11197;53.110;8.468;2023-05-10T06:04:18;14.30;99.90
22065;DHT22;11197;53.110;8.468;2023-05-10T06:06:45;14.30;99.90
22065;DHT22;11197;53.110;8.468;2023-05-10T06:09:10;14.30;99.90
22065;DHT22;11197;53.110;8.468;2023-05-10T06:11:37;14.30;99.90
22065;DHT22;11197;53.110;8.468;2023-05-10T06:14:04;14.30;99.90
22065;DHT22;11197;53.110;8.468;2023-05-10T06:16:30;14.30;99.90
22065;DHT22;11197;53.110;8.468;2023-05-10T06:18:56;14.30;99.90
22065;DHT22;11197;53.110;8.468;2023-05-10T06:21:22;14.30;99.90
22065;DHT22;11197;53.110;8.468;2023-05-10T06:23:48;14.30;99.90
22065;DHT22;11197;53.110;8.468;2023-05-10T06:26:14;14.40;99.90
22065;DHT22;11197;53.110;8.468;2023-05-10T06:28:40;14.40;99.90
22065;DHT22;11197;53.110;8.468;2023-05-10T06:31:06;14.40;99.90
22065;DHT22;11197;53.110;8.468;2023-05-10T06:33:33;14.40;99.90
22065;DHT22;11197;53.110;8.468;2023-05-10T06:35:59;14.40;99.90
22065;DHT22;11197;53.110;8.468;2023-05-10T06:38:25;14.40;99.90
22065;DHT22;11197;53.110;8.468;2023-05-10T06:40:51;14.40;99.90
22065;DHT22;11197;53.110;8.468;2023-05-10T06:43:17;14.40;99.90
22065;DHT22;11197;53.110;8.468;2023-05-10T06:45:43;14.40;99.90
22065;DHT22;11197;53.110;8.468;2023-05-10T06:48:09;14.40;99.90
22065;DHT22;11197;53.110;8.468;2023-05-10T06:50:35;14.40;99.90
22065;DHT22;11197;53.110;8.468;2023-05-10T06:53:01;14.50;99.90
22065;DHT22;11197;53.110;8.468;2023-05-10T06:55:30;14.50;99.90
22065;DHT22;11197;53.110;8.468;2023-05-10T06:57:55;14.50;99.90
22065;DHT22;11197;53.110;8.468;2023-05-10T07:00:21;14.50;99.90
22065;DHT22;11197;53.110;8.468;2023-05-10T07:02:47;14.50;99.90
22065;DHT22;11197;53.110;8.468;2023-05-10T07:05:13;14.50;99.90
22065;DHT22;11197;53.110;8.468;2023-05-10T07:07:39;14.60;99.90
22065;DHT22;11197;53.110;8.468;2023-05-10T07:10:05;14.50;99.90
22065;DHT22;11197;53.110;8.468;2023-05-10T07:12:32;14.50;99.90
22065;DHT22;11197;53.110;8.468;2023-05-10T07:14:58;14.50;99.90
22065;DHT22;11197;53.110;8.468;2023-05-10T07:17:24;14.50;99.90
22065;DHT22;11197;53.110;8.468;2023-05-10T07:19:50;14.50;99.90
22065;DHT22;11197;53.110;8.468;2023-05-10T07:22:16;14.50;99.90
22065;DHT22;11197;53.110;8.468;2023-05-10T07:24:44;14.50;99.90
22065;DHT22;11197;53.110;8.468;2023-05-10T07:27:10;14.50;99.90
22065;DHT22;11197;53.110;8.468;2023-05-10T07:29:36;14.50;99.90
22065;DHT22;11197;53.110;8.468;2023-05-10T07:32:02;14.50;99.90
22065;DHT22;11197;53.110;8.468;2023-05-10T07:34:27;14.50;99.90
22065;DHT22;11197;53.110;8.468;2023-05-10T07:36:57;14.50;99.90
22065;DHT22;11197;53.110;8.468;2023-05-10T07:39:23;14.50;99.90
22065;DHT22;11197;53.110;8.468;2023-05-10T07:41:49;14.50;99.90
22065;DHT22;11197;53.110;8.468;2023-05-10T07:44:14;14.50;99.90
22065;DHT22;11197;53.110;8.468;2023-05-10T07:46:40;14.60;99.90
22065;DHT22;11197;53.110;8.468;2023-05-10T07:49:06;14.60;99.90
22065;DHT22;11197;53.110;8.468;2023-05-10T07:51:32;14.60;99.90
22065;DHT22;11197;53.110;8.468;2023-05-10T07:53:58;14.50;99.90
22065;DHT22;11197;53.110;8.468;2023-05-10T07:56:25;14.60;99.90
22065;DHT22;11197;53.110;8.468;2023-05-10T07:58:55;14.60;99.90
22065;DHT22;11197;53.110;8.468;2023-05-10T08:01:22;14.70;99.90
22065;DHT22;11197;53.110;8.468;2023-05-10T08:03:48;14.70;99.90
22065;DHT22;11197;53.110;8.468;2023-05-10T08:06:15;14.70;99.90
22065;DHT22;11197;53.110;8.468;2023-05-10T08:08:41;14.70;99.90
22065;DHT22;11197;53.110;8.468;2023-05-10T08:11:07;14.70;99.90
22065;DHT22;11197;53.110;8.468;2023-05-10T08:13:33;14.70;99.90
22065;DHT22;11197;53.110;8.468;2023-05-10T08:15:59;14.70;99.90
22065;DHT22;11197;53.110;8.468;2023-05-10T08:18:26;14.70;99.90
22065;DHT22;11197;53.110;8.468;2023-05-10T08:20:51;14.70;99.90
22065;DHT22;11197;53.110;8.468;2023-05-10T08:23:17;14.70;99.90
22065;DHT22;11197;53.110;8.468;2023-05-10T08:25:43;14.60;99.90
22065;DHT22;11197;53.110;8.468;2023-05-10T08:28:09;14.70;99.90
22065;DHT22;11197;53.110;8.468;2023-05-10T08:30:35;14.60;99.90
22065;DHT22;11197;53.110;8.468;2023-05-10T08:33:01;14.70;99.90
22065;DHT22;11197;53.110;8.468;2023-05-10T08:35:27;14.80;99.90
22065;DHT22;11197;53.110;8.468;2023-05-10T08:37:54;14.80;99.90
22065;DHT22;11197;53.110;8.468;2023-05-10T08:40:20;14.80;99.90
22065;DHT22;11197;53.110;8.468;2023-05-10T08:42:58;14.80;99.90
22065;DHT22;11197;53.110;8.468;2023-05-10T08:45:31;14.90;99.90
22065;DHT22;11197;53.110;8.468;2023-05-10T08:47:59;14.90;99.90
22065;DHT22;11197;53.110;8.468;2023-05-10T08:50:25;14.90;99.90
22065;DHT22;11197;53.110;8.468;2023-05-10T08:52:53;14.90;99.90
22065;DHT22;11197;53.110;8.468;2023-05-10T08:55:21;14.90;99.90
22065;DHT22;11197;53.110;8.468;2023-05-10T08:57:49;14.90;99.90
22065;DHT22;11197;53.110;8.468;2023-05-10T09:00:17;14.90;99.90
22065;DHT22;11197;53.110;8.468;2023-05-10T09:02:44;14.90;99.90
22065;DHT22;11197;53.110;8.468;2023-05-10T09:05:12;14.90;99.90
22065;DHT22;11197;53.110;8.468;2023-05-10T09:07:37;14.90;99.90
22065;DHT22;11197;53.110;8.468;2023-05-10T09:10:04;14.90;99.90
22065;DHT22;11197;53.110;8.468;2023-05-10T09:12:30;14.90;99.90
22065;DHT22;11197;53.110;8.468;2023-05-10T09:14:59;15.00;99.90
22065;DHT22;11197;53.110;8.468;2023-05-10T09:17:25;15.00;99.90
22065;DHT22;11197;53.110;8.468;2023-05-10T09:19:59;15.00;99.90
22065;DHT22;11197;53.110;8.468;2023-05-10T09:22:25;15.00;99.90
22065;DHT22;11197;53.110;8.468;2023-05-10T09:27:35;14.90;99.90
22065;DHT22;11197;53.110;8.468;2023-05-10T09:30:02;14.90;99.90
22065;DHT22;11197;53.110;8.468;2023-05-10T09:32:39;14.90;99.90
22065;DHT22;11197;53.110;8.468;2023-05-10T09:35:15;14.90;99.90
22065;DHT22;11197;53.110;8.468;2023-05-10T09:37:43;14.90;99.90
22065;DHT22;11197;53.110;8.468;2023-05-10T09:40:29;15.00;99.90
22065;DHT22;11197;53.110;8.468;2023-05-10T09:42:59;15.00;99.90
22065;DHT22;11197;53.110;8.468;2023-05-10T09:45:27;15.10;99.90
22065;DHT22;11197;53.110;8.468;2023-05-10T09:47:54;15.00;99.90
22065;DHT22;11197;53.110;8.468;2023-05-10T09:50:21;15.10;99.90
22065;DHT22;11197;53.110;8.468;2023-05-10T09:52:57;15.10;99.90
22065;DHT22;11197;53.110;8.468;2023-05-10T09:55:25;15.10;99.90
22065;DHT22;11197;53.110;8.468;2023-05-10T09:58:00;15.10;99.90
22065;DHT22;11197;53.110;8.468;2023-05-10T10:00:27;15.10;99.90
22065;DHT22;11197;53.110;8.468;2023-05-10T10:02:58;15.10;99.90
22065;DHT22;11197;53.110;8.468;2023-05-10T10:05:31;15.10;99.90
22065;DHT22;11197;53.110;8.468;2023-05-10T10:07:58;15.20;99.90
22065;DHT22;11197;53.110;8.468;2023-05-10T10:10:28;15.20;99.90
22065;DHT22;11197;53.110;8.468;2023-05-10T10:12:54;15.20;99.90
22065;DHT22;11197;53.110;8.468;2023-05-10T10:15:21;15.20;99.90
22065;DHT22;11197;53.110;8.468;2023-05-10T10:17:49;15.20;99.90
22065;DHT22;11197;53.110;8.468;2023-05-10T10:20:15;15.30;99.90
22065;DHT22;11197;53.110;8.468;2023-05-10T10:22:42;15.30;99.90
22065;DHT22;11197;53.110;8.468;2023-05-10T10:25:15;15.30;99.90
22065;DHT22;11197;53.110;8.468;2023-05-10T10:30:43;15.20;99.90
22065;DHT22;11197;53.110;8.468;2023-05-10T10:35:57;15.30;99.90
22065;DHT22;11197;53.110;8.468;2023-05-10T10:38:24;15.40;99.90
22065;DHT22;11197;53.110;8.468;2023-05-10T10:41:09;15.40;99.90
22065;DHT22;11197;53.110;8.468;2023-05-10T10:43:35;15.50;99.90
22065;DHT22;11197;53.110;8.468;2023-05-10T10:48:49;15.40;99.90
22065;DHT22;11197;53.110;8.468;2023-05-10T10:51:15;15.40;99.90
22065;DHT22;11197;53.110;8.468;2023-05-10T10:53:41;15.40;99.90
22065;DHT22;11197;53.110;8.468;2023-05-10T10:56:10;15.40;99.90
22065;DHT22;11197;53.110;8.468;2023-05-10T10:58:37;15.40;99.90
22065;DHT22;11197;53.110;8.468;2023-05-10T11:01:15;15.40;99.90
22065;DHT22;11197;53.110;8.468;2023-05-10T11:06:36;15.30;99.90
22065;DHT22;11197;53.110;8.468;2023-05-10T11:09:10;15.30;99.90
22065;DHT22;11197;53.110;8.468;2023-05-10T11:11:52;15.40;99.90
22065;DHT22;11197;53.110;8.468;2023-05-10T11:14:21;15.40;99.90
22065;DHT22;11197;53.110;8.468;2023-05-10T11:16:50;15.50;99.90
22065;DHT22;11197;53.110;8.468;2023-05-10T11:19:17;15.50;99.90
22065;DHT22;11197;53.110;8.468;2023-05-10T11:21:51;15.60;99.90
22065;DHT22;11197;53.110;8.468;2023-05-10T11:24:22;15.60;99.90
22065;DHT22;11197;53.110;8.468;2023-05-10T11:26:52;15.70;99.90
22065;DHT22;11197;53.110;8.468;2023-05-10T11:29:19;15.70;99.90
22065;DHT22;11197;53.110;8.468;2023-05-10T11:31:46;15.70;99.90
22065;DHT22;11197;53.110;8.468;2023-05-10T11:34:33;15.70;99.90
22065;DHT22;11197;53.110;8.468;2023-05-10T11:36:59;15.70;99.90
22065;DHT22;11197;53.110;8.468;2023-05-10T11:39:30;15.70;99.90
22065;DHT22;11197;53.110;8.468;2023-05-10T11:41:56;15.70;99.90
22065;DHT22;11197;53.110;8.468;2023-05-10T11:44:22;15.80;99.90
22065;DHT22;11197;53.110;8.468;2023-05-10T11:46:49;15.80;99.90
22065;DHT22;11197;53.110;8.468;2023-05-10T11:49:15;15.80;99.90
22065;DHT22;11197;53.110;8.468;2023-05-10T11:51:41;15.80;99.90
22065;DHT22;11197;53.110;8.468;2023-05-10T11:54:10;15.90;99.90
22065;DHT22;11197;53.110;8.468;2023-05-10T11:56:40;15.90;99.90
22065;DHT22;11197;53.110;8.468;2023-05-10T11:59:07;16.00;99.90
22065;DHT22;11197;53.110;8.468;2023-05-10T12:01:34;16.00;99.90
22065;DHT22;11197;53.110;8.468;2023-05-10T12:04:01;15.90;99.90
22065;DHT22;11197;53.110;8.468;2023-05-10T12:06:29;16.00;99.90
22065;DHT22;11197;53.110;8.468;2023-05-10T12:08:57;16.00;99.90
22065;DHT22;11197;53.110;8.468;2023-05-10T12:11:27;16.00;99.90
22065;DHT22;11197;53.110;8.468;2023-05-10T12:13:54;16.00;99.90
22065;DHT22;11197;53.110;8.468;2023-05-10T12:16:23;16.10;99.90
22065;DHT22;11197;53.110;8.468;2023-05-10T12:18:54;16.10;99.90
22065;DHT22;11197;53.110;8.468;2023-05-10T12:21:21;16.10;99.90
22065;DHT22;11197;53.110;8.468;2023-05-10T12:23:50;16.00;99.90
22065;DHT22;11197;53.110;8.468;2023-05-10T12:26:16;16.00;99.90
22065;DHT22;11197;53.110;8.468;2023-05-10T12:28:43;16.10;99.90
22065;DHT22;11197;53.110;8.468;2023-05-10T12:31:09;16.10;99.90
22065;DHT22;11197;53.110;8.468;2023-05-10T12:33:41;16.10;99.90
22065;DHT22;11197;53.110;8.468;2023-05-10T12:36:12;16.10;99.90
22065;DHT22;11197;53.110;8.468;2023-05-10T12:38:45;16.10;99.90
22065;DHT22;11197;53.110;8.468;2023-05-10T12:41:18;16.20;99.90
22065;DHT22;11197;53.110;8.468;2023-05-10T12:43:44;16.10;99.90
22065;DHT22;11197;53.110;8.468;2023-05-10T12:46:15;16.10;99.90
22065;DHT22;11197;53.110;8.468;2023-05-10T12:48:43;16.20;99.90
22065;DHT22;11197;53.110;8.468;2023-05-10T12:51:09;16.10;99.90
22065;DHT22;11197;53.110;8.468;2023-05-10T12:53:38;16.10;99.90
22065;DHT22;11197;53.110;8.468;2023-05-10T12:56:04;16.10;99.90
22065;DHT22;11197;53.110;8.468;2023-05-10T12:58:31;16.10;99.90
22065;DHT22;11197;53.110;8.468;2023-05-10T13:00:58;16.10;99.90
22065;DHT22;11197;53.110;8.468;2023-05-10T13:03:24;16.10;99.90
22065;DHT22;11197;53.110;8.468;2023-05-10T13:05:51;16.10;99.90
22065;DHT22;11197;53.110;8.468;2023-05-10T13:08:17;16.00;99.90
22065;DHT22;11197;53.110;8.468;2023-05-10T13:10:43;16.00;99.90
22065;DHT22;11197;53.110;8.468;2023-05-10T13:13:09;16.00;99.90
22065;DHT22;11197;53.110;8.468;2023-05-10T13:15:35;16.00;99.90
22065;DHT22;11197;53.110;8.468;2023-05-10T13:18:01;16.00;99.90
22065;DHT22;11197;53.110;8.468;2023-05-10T13:20:27;16.10;99.90
22065;DHT22;11197;53.110;8.468;2023-05-10T13:22:53;16.10;99.90
22065;DHT22;11197;53.110;8.468;2023-05-10T13:25:19;16.10;99.90
22065;DHT22;11197;53.110;8.468;2023-05-10T13:27:45;16.10;99.90
22065;DHT22;11197;53.110;8.468;2023-05-10T13:30:11;16.10;99.90
22065;DHT22;11197;53.110;8.468;2023-05-10T13:32:38;16.10;99.90
22065;DHT22;11197;53.110;8.468;2023-05-10T13:35:04;16.10;99.90
22065;DHT22;11197;53.110;8.468;2023-05-10T13:37:31;16.10;99.90
22065;DHT22;11197;53.110;8.468;2023-05-10T13:39:58;16.20;99.90
22065;DHT22;11197;53.110;8.468;2023-05-10T13:42:23;16.20;99.90
22065;DHT22;11197;53.110;8.468;2023-05-10T13:44:50;16.20;99.90
22065;DHT22;11197;53.110;8.468;2023-05-10T13:47:16;16.30;99.90
22065;DHT22;11197;53.110;8.468;2023-05-10T13:49:42;16.30;99.90
22065;DHT22;11197;53.110;8.468;2023-05-10T13:52:08;16.40;99.90
22065;DHT22;11197;53.110;8.468;2023-05-10T13:54:39;16.40;99.90
22065;DHT22;11197;53.110;8.468;2023-05-10T13:57:05;16.40;99.90
22065;DHT22;11197;53.110;8.468;2023-05-10T13:59:32;16.40;99.90
22065;DHT22;11197;53.110;8.468;2023-05-10T14:01:58;16.50;99.90
22065;DHT22;11197;53.110;8.468;2023-05-10T14:04:25;16.50;99.90
22065;DHT22;11197;53.110;8.468;2023-05-10T14:06:51;16.50;99.90
22065;DHT22;11197;53.110;8.468;2023-05-10T14:09:18;16.50;99.90
22065;DHT22;11197;53.110;8.468;2023-05-10T14:11:45;16.40;99.90
22065;DHT22;11197;53.110;8.468;2023-05-10T14:14:11;16.40;99.90
22065;DHT22;11197;53.110;8.468;2023-05-10T14:16:41;16.40;99.90
22065;DHT22;11197;53.110;8.468;2023-05-10T14:19:07;16.40;99.90
22065;DHT22;11197;53.110;8.468;2023-05-10T14:21:33;16.40;99.90
22065;DHT22;11197;53.110;8.468;2023-05-10T14:24:00;16.30;99.90
22065;DHT22;11197;53.110;8.468;2023-05-10T14:26:26;16.30;99.90
22065;DHT22;11197;53.110;8.468;2023-05-10T14:28:53;16.20;99.90
22065;DHT22;11197;53.110;8.468;2023-05-10T14:31:19;16.20;99.90
22065;DHT22;11197;53.110;8.468;2023-05-10T14:33:50;16.20;99.90
22065;DHT22;11197;53.110;8.468;2023-05-10T14:36:16;16.20;99.90
22065;DHT22;11197;53.110;8.468;2023-05-10T14:38:42;16.20;99.90
22065;DHT22;11197;53.110;8.468;2023-05-10T14:41:08;16.30;99.90
22065;DHT22;11197;53.110;8.468;2023-05-10T14:43:34;16.30;99.90
22065;DHT22;11197;53.110;8.468;2023-05-10T14:46:01;16.40;99.90
22065;DHT22;11197;53.110;8.468;2023-05-10T14:48:27;16.40;99.90
22065;DHT22;11197;53.110;8.468;2023-05-10T14:50:52;16.50;99.90
22065;DHT22;11197;53.110;8.468;2023-05-10T14:53:18;16.50;99.90
22065;DHT22;11197;53.110;8.468;2023-05-10T14:55:44;16.50;99.90
22065;DHT22;11197;53.110;8.468;2023-05-10T14:58:10;16.50;99.90
22065;DHT22;11197;53.110;8.468;2023-05-10T15:00:36;16.60;99.90
22065;DHT22;11197;53.110;8.468;2023-05-10T15:03:03;16.50;99.90
22065;DHT22;11197;53.110;8.468;2023-05-10T15:05:29;16.50;99.90
22065;DHT22;11197;53.110;8.468;2023-05-10T15:07:55;16.50;99.90
22065;DHT22;11197;53.110;8.468;2023-05-10T15:10:21;16.50;99.90
22065;DHT22;11197;53.110;8.468;2023-05-10T15:12:47;16.40;99.90
22065;DHT22;11197;53.110;8.468;2023-05-10T15:15:13;16.40;99.90
22065;DHT22;11197;53.110;8.468;2023-05-10T15:17:40;16.40;99.90
22065;DHT22;11197;53.110;8.468;2023-05-10T15:20:08;16.40;99.90
22065;DHT22;11197;53.110;8.468;2023-05-10T15:22:34;16.40;99.90
22065;DHT22;11197;53.110;8.468;2023-05-10T15:25:00;16.40;99.90
22065;DHT22;11197;53.110;8.468;2023-05-10T15:27:26;16.40;99.90
22065;DHT22;11197;53.110;8.468;2023-05-10T15:29:52;16.50;99.90
22065;DHT22;11197;53.110;8.468;2023-05-10T15:32:18;16.50;99.90
22065;DHT22;11197;53.110;8.468;2023-05-10T15:34:44;16.50;99.90
22065;DHT22;11197;53.110;8.468;2023-05-10T15:37:10;16.50;99.90
22065;DHT22;11197;53.110;8.468;2023-05-10T15:39:36;16.50;99.90
22065;DHT22;11197;53.110;8.468;2023-05-10T15:42:02;16.40;99.90
22065;DHT22;11197;53.110;8.468;2023-05-10T15:44:29;16.50;99.90
22065;DHT22;11197;53.110;8.468;2023-05-10T15:46:55;16.50;99.90
22065;DHT22;11197;53.110;8.468;2023-05-10T15:49:21;16.40;99.90
22065;DHT22;11197;53.110;8.468;2023-05-10T15:51:47;16.40;99.90
22065;DHT22;11197;53.110;8.468;2023-05-10T15:54:14;16.40;99.90
22065;DHT22;11197;53.110;8.468;2023-05-10T15:56:40;16.50;99.90
22065;DHT22;11197;53.110;8.468;2023-05-10T15:59:06;16.50;99.90
22065;DHT22;11197;53.110;8.468;2023-05-10T16:01:33;16.60;99.90
22065;DHT22;11197;53.110;8.468;2023-05-10T16:04:00;16.60;99.90